sensor_id;sensor_type;location;lat;lon;timestamp;temperature;humidity
18454;DHT22;9356;52.202;20.950;2023-03-23T00:00:37;10.20;99.90
18454;DHT22;9356;52.202;20.950;2023-03-23T00:01:38;6.40;99.90
18454;DHT22;9356;52.202;20.950;2023-03-23T00:02:41;10.20;99.90
18454;DHT22;9356;52.202;20.950;2023-03-23T00:03:46;10.30;99.90
18454;DHT22;9356;52.202;20.950;2023-03-23T00:05:52;10.30;99.90
18454;DHT22;9356;52.202;20.950;2023-03-23T00:07:00;10.40;99.90
18454;DHT22;9356;52.202;20.950;2023-03-23T00:08:04;10.40;99.90
18454;DHT22;9356;52.202;20.950;2023-03-23T00:10:10;10.30;99.90
18454;DHT22;9356;52.202;20.950;2023-03-23T00:12:15;10.30;99.90
18454;DHT22;9356;52.202;20.950;2023-03-23T00:13:17;10.30;99.90
18454;DHT22;9356;52.202;20.950;2023-03-23T00:14:20;10.20;99.90
18454;DHT22;9356;52.202;20.950;2023-03-23T00:15:23;10.30;99.90
18454;DHT22;9356;52.202;20.950;2023-03-23T00:16:29;10.20;99.90
18454;DHT22;9356;52.202;20.950;2023-03-23T00:17:34;10.10;99.90
18454;DHT22;9356;52.202;20.950;2023-03-23T00:18:37;10.20;99.90
18454;DHT22;9356;52.202;20.950;2023-03-23T00:19:39;10.10;99.90
18454;DHT22;9356;52.202;20.950;2023-03-23T00:20:48;10.10;99.90
18454;DHT22;9356;52.202;20.950;2023-03-23T00:21:50;10.20;99.90
18454;DHT22;9356;52.202;20.950;2023-03-23T00:22:55;10.10;99.90
18454;DHT22;9356;52.202;20.950;2023-03-23T00:24:02;10.10;99.90
18454;DHT22;9356;52.202;20.950;2023-03-23T00:25:07;10.10;99.90
18454;DHT22;9356;52.202;20.950;2023-03-23T00:26:09;14.30;99.90
18454;DHT22;9356;52.202;20.950;2023-03-23T00:27:13;10.10;99.90
18454;DHT22;9356;52.202;20.950;2023-03-23T00:28:16;10.00;99.90
18454;DHT22;9356;52.202;20.950;2023-03-23T00:29:22;10.00;99.90
18454;DHT22;9356;52.202;20.950;2023-03-23T00:30:25;10.00;99.90
18454;DHT22;9356;52.202;20.950;2023-03-23T00:31:31;10.10;99.90
18454;DHT22;9356;52.202;20.950;2023-03-23T00:32:37;10.10;99.90
18454;DHT22;9356;52.202;20.950;2023-03-23T00:33:39;10.00;99.90
18454;DHT22;9356;52.202;20.950;2023-03-23T00:34:42;10.00;99.90
18454;DHT22;9356;52.202;20.950;2023-03-23T00:36:51;12.60;99.90
18454;DHT22;9356;52.202;20.950;2023-03-23T00:37:54;10.00;99.90
18454;DHT22;9356;52.202;20.950;2023-03-23T00:38:58;10.00;99.90
18454;DHT22;9356;52.202;20.950;2023-03-23T00:40:00;10.00;99.90
18454;DHT22;9356;52.202;20.950;2023-03-23T00:41:08;13.80;99.90
18454;DHT22;9356;52.202;20.950;2023-03-23T00:42:14;10.10;99.90
18454;DHT22;9356;52.202;20.950;2023-03-23T00:43:19;10.00;99.90
18454;DHT22;9356;52.202;20.950;2023-03-23T00:44:21;10.10;99.90
18454;DHT22;9356;52.202;20.950;2023-03-23T00:46:28;10.00;99.90
18454;DHT22;9356;52.202;20.950;2023-03-23T00:47:31;10.00;99.90
18454;DHT22;9356;52.202;20.950;2023-03-23T00:48:38;9.90;99.90
18454;DHT22;9356;52.202;20.950;2023-03-23T00:49:45;10.00;99.90
18454;DHT22;9356;52.202;20.950;2023-03-23T00:50:47;9.90;99.90
18454;DHT22;9356;52.202;20.950;2023-03-23T00:51:51;9.80;99.90
18454;DHT22;9356;52.202;20.950;2023-03-23T00:52:53;9.80;99.90
18454;DHT22;9356;52.202;20.950;2023-03-23T00:53:57;9.80;99.90
18454;DHT22;9356;52.202;20.950;2023-03-23T00:54:59;9.80;99.90
18454;DHT22;9356;52.202;20.950;2023-03-23T00:56:02;9.90;99.90
18454;DHT22;9356;52.202;20.950;2023-03-23T00:57:04;9.90;99.90
18454;DHT22;9356;52.202;20.950;2023-03-23T00:58:08;9.80;99.90
18454;DHT22;9356;52.202;20.950;2023-03-23T00:59:12;9.90;99.90
18454;DHT22;9356;52.202;20.950;2023-03-23T01:00:15;7.90;99.90
18454;DHT22;9356;52.202;20.950;2023-03-23T01:01:17;9.80;99.90
18454;DHT22;9356;52.202;20.950;2023-03-23T01:02:21;9.80;99.90
18454;DHT22;9356;52.202;20.950;2023-03-23T01:04:33;9.90;99.90
18454;DHT22;9356;52.202;20.950;2023-03-23T01:05:39;9.90;99.90
18454;DHT22;9356;52.202;20.950;2023-03-23T01:07:47;10.00;99.90
18454;DHT22;9356;52.202;20.950;2023-03-23T01:08:49;9.90;99.90
18454;DHT22;9356;52.202;20.950;2023-03-23T01:09:52;10.00;99.90
18454;DHT22;9356;52.202;20.950;2023-03-23T01:11:03;10.00;99.90
18454;DHT22;9356;52.202;20.950;2023-03-23T01:12:06;10.00;99.90
18454;DHT22;9356;52.202;20.950;2023-03-23T01:13:10;9.90;99.90
18454;DHT22;9356;52.202;20.950;2023-03-23T01:14:13;10.00;99.90
18454;DHT22;9356;52.202;20.950;2023-03-23T01:15:18;10.00;99.90
18454;DHT22;9356;52.202;20.950;2023-03-23T01:16:21;10.00;99.90
18454;DHT22;9356;52.202;20.950;2023-03-23T01:18:26;10.10;99.90
18454;DHT22;9356;52.202;20.950;2023-03-23T01:19:29;10.00;99.90
18454;DHT22;9356;52.202;20.950;2023-03-23T01:20:31;10.00;99.90
18454;DHT22;9356;52.202;20.950;2023-03-23T01:21:34;10.00;99.90
18454;DHT22;9356;52.202;20.950;2023-03-23T01:22:40;10.10;99.90
18454;DHT22;9356;52.202;20.950;2023-03-23T01:23:43;10.20;99.90
18454;DHT22;9356;52.202;20.950;2023-03-23T01:24:45;10.10;99.90
18454;DHT22;9356;52.202;20.950;2023-03-23T01:25:48;10.20;99.90
18454;DHT22;9356;52.202;20.950;2023-03-23T01:26:50;10.10;99.90
18454;DHT22;9356;52.202;20.950;2023-03-23T01:27:53;10.20;99.90
18454;DHT22;9356;52.202;20.950;2023-03-23T01:28:54;10.30;99.90
18454;DHT22;9356;52.202;20.950;2023-03-23T01:29:57;7.00;99.90
18454;DHT22;9356;52.202;20.950;2023-03-23T01:31:02;10.20;99.90
18454;DHT22;9356;52.202;20.950;2023-03-23T01:32:05;10.20;99.90
18454;DHT22;9356;52.202;20.950;2023-03-23T01:33:08;10.30;99.90
18454;DHT22;9356;52.202;20.950;2023-03-23T01:34:11;11.70;99.90
18454;DHT22;9356;52.202;20.950;2023-03-23T01:35:13;10.30;99.90
18454;DHT22;9356;52.202;20.950;2023-03-23T01:36:18;9.80;99.90
18454;DHT22;9356;52.202;20.950;2023-03-23T01:37:21;10.40;99.90
18454;DHT22;9356;52.202;20.950;2023-03-23T01:38:28;10.40;99.90
18454;DHT22;9356;52.202;20.950;2023-03-23T01:39:31;10.30;99.90
18454;DHT22;9356;52.202;20.950;2023-03-23T01:40:33;6.60;99.90
18454;DHT22;9356;52.202;20.950;2023-03-23T01:41:36;10.40;99.90
18454;DHT22;9356;52.202;20.950;2023-03-23T01:42:47;10.40;99.90
18454;DHT22;9356;52.202;20.950;2023-03-23T01:45:30;10.40;99.90
18454;DHT22;9356;52.202;20.950;2023-03-23T01:46:36;10.40;99.90
18454;DHT22;9356;52.202;20.950;2023-03-23T01:47:38;10.50;99.90
18454;DHT22;9356;52.202;20.950;2023-03-23T01:48:42;10.50;99.90
18454;DHT22;9356;52.202;20.950;2023-03-23T01:49:48;10.60;99.90
18454;DHT22;9356;52.202;20.950;2023-03-23T01:50:57;10.50;99.90
18454;DHT22;9356;52.202;20.950;2023-03-23T01:52:05;10.60;99.90
18454;DHT22;9356;52.202;20.950;2023-03-23T01:53:10;10.50;99.90
18454;DHT22;9356;52.202;20.950;2023-03-23T01:54:17;13.90;99.90
18454;DHT22;9356;52.202;20.950;2023-03-23T01:55:24;10.60;99.90
18454;DHT22;9356;52.202;20.950;2023-03-23T01:56:36;14.60;99.90
18454;DHT22;9356;52.202;20.950;2023-03-23T01:57:43;10.60;99.90
18454;DHT22;9356;52.202;20.950;2023-03-23T01:58:46;10.60;99.90
18454;DHT22;9356;52.202;20.950;2023-03-23T01:59:53;10.60;99.90
18454;DHT22;9356;52.202;20.950;2023-03-23T02:01:03;10.60;99.90
18454;DHT22;9356;52.202;20.950;2023-03-23T02:02:07;10.60;99.90
18454;DHT22;9356;52.202;20.950;2023-03-23T02:03:13;11.60;99.90
18454;DHT22;9356;52.202;20.950;2023-03-23T02:04:21;9.10;99.90
18454;DHT22;9356;52.202;20.950;2023-03-23T02:05:30;10.70;99.90
18454;DHT22;9356;52.202;20.950;2023-03-23T02:06:41;10.60;99.90
18454;DHT22;9356;52.202;20.950;2023-03-23T02:07:53;10.70;99.90
18454;DHT22;9356;52.202;20.950;2023-03-23T02:08:56;13.40;99.90
18454;DHT22;9356;52.202;20.950;2023-03-23T02:09:59;10.60;99.90
18454;DHT22;9356;52.202;20.950;2023-03-23T02:11:13;10.60;99.90
18454;DHT22;9356;52.202;20.950;2023-03-23T02:12:17;10.60;99.90
18454;DHT22;9356;52.202;20.950;2023-03-23T02:13:19;10.60;99.90
18454;DHT22;9356;52.202;20.950;2023-03-23T02:14:25;10.70;99.90
18454;DHT22;9356;52.202;20.950;2023-03-23T02:15:36;10.60;99.90
18454;DHT22;9356;52.202;20.950;2023-03-23T02:16:47;10.70;99.90
18454;DHT22;9356;52.202;20.950;2023-03-23T02:18:01;10.70;99.90
18454;DHT22;9356;52.202;20.950;2023-03-23T02:21:09;10.70;99.90
18454;DHT22;9356;52.202;20.950;2023-03-23T02:22:46;10.60;99.90
18454;DHT22;9356;52.202;20.950;2023-03-23T02:24:10;10.70;99.90
18454;DHT22;9356;52.202;20.950;2023-03-23T02:27:05;10.60;99.90
18454;DHT22;9356;52.202;20.950;2023-03-23T02:28:26;10.60;99.90
18454;DHT22;9356;52.202;20.950;2023-03-23T02:30:00;10.60;99.90
18454;DHT22;9356;52.202;20.950;2023-03-23T02:31:33;10.60;99.90
18454;DHT22;9356;52.202;20.950;2023-03-23T02:33:06;11.70;99.90
18454;DHT22;9356;52.202;20.950;2023-03-23T02:34:15;10.60;99.90
18454;DHT22;9356;52.202;20.950;2023-03-23T02:35:27;10.50;99.90
18454;DHT22;9356;52.202;20.950;2023-03-23T02:36:38;10.30;99.90
18454;DHT22;9356;52.202;20.950;2023-03-23T02:37:51;10.50;99.90
18454;DHT22;9356;52.202;20.950;2023-03-23T02:39:00;10.60;99.90
18454;DHT22;9356;52.202;20.950;2023-03-23T02:40:09;10.50;99.90
18454;DHT22;9356;52.202;20.950;2023-03-23T02:41:16;10.50;99.90
18454;DHT22;9356;52.202;20.950;2023-03-23T02:42:25;9.60;99.90
18454;DHT22;9356;52.202;20.950;2023-03-23T02:43:33;13.70;99.90
18454;DHT22;9356;52.202;20.950;2023-03-23T02:44:42;7.90;99.90
18454;DHT22;9356;52.202;20.950;2023-03-23T02:45:45;10.50;99.90
18454;DHT22;9356;52.202;20.950;2023-03-23T02:46:51;10.50;99.90
18454;DHT22;9356;52.202;20.950;2023-03-23T02:47:56;10.50;99.90
18454;DHT22;9356;52.202;20.950;2023-03-23T02:49:03;10.60;99.90
18454;DHT22;9356;52.202;20.950;2023-03-23T02:50:12;10.50;99.90
18454;DHT22;9356;52.202;20.950;2023-03-23T02:51:20;10.50;99.90
18454;DHT22;9356;52.202;20.950;2023-03-23T02:52:26;11.70;99.90
18454;DHT22;9356;52.202;20.950;2023-03-23T02:53:34;10.50;99.90
18454;DHT22;9356;52.202;20.950;2023-03-23T02:54:39;10.40;99.90
18454;DHT22;9356;52.202;20.950;2023-03-23T02:55:43;10.50;99.90
18454;DHT22;9356;52.202;20.950;2023-03-23T02:56:52;10.50;99.90
18454;DHT22;9356;52.202;20.950;2023-03-23T02:58:01;10.50;99.90
18454;DHT22;9356;52.202;20.950;2023-03-23T02:59:04;10.50;99.90
18454;DHT22;9356;52.202;20.950;2023-03-23T03:00:13;10.30;99.90
18454;DHT22;9356;52.202;20.950;2023-03-23T03:01:50;10.50;99.90
18454;DHT22;9356;52.202;20.950;2023-03-23T03:02:56;10.50;99.90
18454;DHT22;9356;52.202;20.950;2023-03-23T03:04:09;10.50;99.90
18454;DHT22;9356;52.202;20.950;2023-03-23T03:05:24;10.50;99.90
18454;DHT22;9356;52.202;20.950;2023-03-23T03:06:36;10.50;99.90
18454;DHT22;9356;52.202;20.950;2023-03-23T03:07:58;10.50;99.90
18454;DHT22;9356;52.202;20.950;2023-03-23T03:09:10;10.40;99.90
18454;DHT22;9356;52.202;20.950;2023-03-23T03:10:23;10.50;99.90
18454;DHT22;9356;52.202;20.950;2023-03-23T03:11:31;11.00;99.90
18454;DHT22;9356;52.202;20.950;2023-03-23T03:12:44;10.50;99.90
18454;DHT22;9356;52.202;20.950;2023-03-23T03:13:54;8.60;99.90
18454;DHT22;9356;52.202;20.950;2023-03-23T03:15:08;8.30;99.90
18454;DHT22;9356;52.202;20.950;2023-03-23T03:16:20;10.50;99.90
18454;DHT22;9356;52.202;20.950;2023-03-23T03:17:27;10.60;99.90
18454;DHT22;9356;52.202;20.950;2023-03-23T03:18:37;10.60;99.90
18454;DHT22;9356;52.202;20.950;2023-03-23T03:19:52;10.50;99.90
18454;DHT22;9356;52.202;20.950;2023-03-23T03:21:01;10.60;99.90
18454;DHT22;9356;52.202;20.950;2023-03-23T03:22:08;10.50;99.90
18454;DHT22;9356;52.202;20.950;2023-03-23T03:23:17;9.20;99.90
18454;DHT22;9356;52.202;20.950;2023-03-23T03:24:25;10.50;99.90
18454;DHT22;9356;52.202;20.950;2023-03-23T03:25:28;10.60;99.90
18454;DHT22;9356;52.202;20.950;2023-03-23T03:26:34;10.50;99.90
18454;DHT22;9356;52.202;20.950;2023-03-23T03:27:53;10.50;99.90
18454;DHT22;9356;52.202;20.950;2023-03-23T03:29:13;10.50;99.90
18454;DHT22;9356;52.202;20.950;2023-03-23T03:30:25;10.50;99.90
18454;DHT22;9356;52.202;20.950;2023-03-23T03:31:35;10.60;99.90
18454;DHT22;9356;52.202;20.950;2023-03-23T03:32:43;10.60;99.90
18454;DHT22;9356;52.202;20.950;2023-03-23T03:33:51;10.50;99.90
18454;DHT22;9356;52.202;20.950;2023-03-23T03:34:55;14.30;99.90
18454;DHT22;9356;52.202;20.950;2023-03-23T03:36:01;13.20;99.90
18454;DHT22;9356;52.202;20.950;2023-03-23T03:37:05;10.50;99.90
18454;DHT22;9356;52.202;20.950;2023-03-23T03:38:11;10.90;99.90
18454;DHT22;9356;52.202;20.950;2023-03-23T03:39:15;7.50;99.90
18454;DHT22;9356;52.202;20.950;2023-03-23T03:40:21;10.50;99.90
18454;DHT22;9356;52.202;20.950;2023-03-23T03:41:25;10.50;99.90
18454;DHT22;9356;52.202;20.950;2023-03-23T03:42:28;10.50;99.90
18454;DHT22;9356;52.202;20.950;2023-03-23T03:43:29;10.40;99.90
18454;DHT22;9356;52.202;20.950;2023-03-23T03:44:32;14.20;99.90
18454;DHT22;9356;52.202;20.950;2023-03-23T03:45:34;10.40;99.90
18454;DHT22;9356;52.202;20.950;2023-03-23T03:46:38;14.10;99.90
18454;DHT22;9356;52.202;20.950;2023-03-23T03:47:42;10.40;99.90
18454;DHT22;9356;52.202;20.950;2023-03-23T03:48:45;10.30;99.90
18454;DHT22;9356;52.202;20.950;2023-03-23T03:49:47;10.40;99.90
18454;DHT22;9356;52.202;20.950;2023-03-23T03:50:51;10.40;99.90
18454;DHT22;9356;52.202;20.950;2023-03-23T03:51:53;10.50;99.90
18454;DHT22;9356;52.202;20.950;2023-03-23T03:53:01;10.30;99.90
18454;DHT22;9356;52.202;20.950;2023-03-23T03:54:02;10.40;99.90
18454;DHT22;9356;52.202;20.950;2023-03-23T03:55:09;10.40;99.90
18454;DHT22;9356;52.202;20.950;2023-03-23T03:56:17;10.40;99.90
18454;DHT22;9356;52.202;20.950;2023-03-23T03:57:30;14.50;99.90
18454;DHT22;9356;52.202;20.950;2023-03-23T03:58:54;10.40;99.90
18454;DHT22;9356;52.202;20.950;2023-03-23T04:00:19;10.50;99.90
18454;DHT22;9356;52.202;20.950;2023-03-23T04:01:24;10.40;99.90
18454;DHT22;9356;52.202;20.950;2023-03-23T04:02:26;9.40;99.90
18454;DHT22;9356;52.202;20.950;2023-03-23T04:04:48;10.50;99.90
18454;DHT22;9356;52.202;20.950;2023-03-23T04:05:52;10.50;99.90
18454;DHT22;9356;52.202;20.950;2023-03-23T04:06:56;10.50;99.90
18454;DHT22;9356;52.202;20.950;2023-03-23T04:07:59;10.60;99.90
18454;DHT22;9356;52.202;20.950;2023-03-23T04:09:06;10.50;99.90
18454;DHT22;9356;52.202;20.950;2023-03-23T04:10:11;14.00;99.90
18454;DHT22;9356;52.202;20.950;2023-03-23T04:11:43;9.30;99.90
18454;DHT22;9356;52.202;20.950;2023-03-23T04:13:15;10.50;99.90
18454;DHT22;9356;52.202;20.950;2023-03-23T04:14:49;10.50;99.90
18454;DHT22;9356;52.202;20.950;2023-03-23T04:15:52;10.60;99.90
18454;DHT22;9356;52.202;20.950;2023-03-23T04:16:54;13.00;99.90
18454;DHT22;9356;52.202;20.950;2023-03-23T04:18:00;8.80;99.90
18454;DHT22;9356;52.202;20.950;2023-03-23T04:19:03;10.50;99.90
18454;DHT22;9356;52.202;20.950;2023-03-23T04:20:08;10.50;99.90
18454;DHT22;9356;52.202;20.950;2023-03-23T04:21:18;10.50;99.90
18454;DHT22;9356;52.202;20.950;2023-03-23T04:22:24;10.40;99.90
18454;DHT22;9356;52.202;20.950;2023-03-23T04:23:32;10.50;99.90
18454;DHT22;9356;52.202;20.950;2023-03-23T04:24:37;14.30;99.90
18454;DHT22;9356;52.202;20.950;2023-03-23T04:25:42;10.30;99.90
18454;DHT22;9356;52.202;20.950;2023-03-23T04:26:45;10.30;99.90
18454;DHT22;9356;52.202;20.950;2023-03-23T04:27:55;10.50;99.90
18454;DHT22;9356;52.202;20.950;2023-03-23T04:29:04;10.30;99.90
18454;DHT22;9356;52.202;20.950;2023-03-23T04:30:10;10.30;99.90
18454;DHT22;9356;52.202;20.950;2023-03-23T04:32:22;10.30;99.90
18454;DHT22;9356;52.202;20.950;2023-03-23T04:33:29;13.00;99.90
18454;DHT22;9356;52.202;20.950;2023-03-23T04:34:32;10.30;99.90
18454;DHT22;9356;52.202;20.950;2023-03-23T04:35:36;10.20;99.90
18454;DHT22;9356;52.202;20.950;2023-03-23T04:36:51;10.20;99.90
18454;DHT22;9356;52.202;20.950;2023-03-23T04:37:58;10.90;99.90
18454;DHT22;9356;52.202;20.950;2023-03-23T04:39:01;10.10;99.90
18454;DHT22;9356;52.202;20.950;2023-03-23T04:40:08;10.10;99.90
18454;DHT22;9356;52.202;20.950;2023-03-23T04:41:13;10.20;99.90
18454;DHT22;9356;52.202;20.950;2023-03-23T04:42:40;10.20;99.90
18454;DHT22;9356;52.202;20.950;2023-03-23T04:44:00;6.80;99.90
18454;DHT22;9356;52.202;20.950;2023-03-23T04:45:21;10.10;99.90
18454;DHT22;9356;52.202;20.950;2023-03-23T04:46:26;10.10;99.90
18454;DHT22;9356;52.202;20.950;2023-03-23T04:47:35;10.10;99.90
18454;DHT22;9356;52.202;20.950;2023-03-23T04:50:07;10.20;99.90
18454;DHT22;9356;52.202;20.950;2023-03-23T04:51:13;10.10;99.90
18454;DHT22;9356;52.202;20.950;2023-03-23T04:52:19;10.20;99.90
18454;DHT22;9356;52.202;20.950;2023-03-23T04:53:27;10.20;99.90
18454;DHT22;9356;52.202;20.950;2023-03-23T04:55:37;10.20;99.90
18454;DHT22;9356;52.202;20.950;2023-03-23T04:56:43;10.20;99.90
18454;DHT22;9356;52.202;20.950;2023-03-23T04:57:48;10.20;99.90
18454;DHT22;9356;52.202;20.950;2023-03-23T04:59:08;10.00;99.90
18454;DHT22;9356;52.202;20.950;2023-03-23T05:00:28;10.30;99.90
18454;DHT22;9356;52.202;20.950;2023-03-23T05:01:31;10.50;99.90
18454;DHT22;9356;52.202;20.950;2023-03-23T05:02:46;13.00;99.90
18454;DHT22;9356;52.202;20.950;2023-03-23T05:03:54;10.80;99.90
18454;DHT22;9356;52.202;20.950;2023-03-23T05:04:56;10.90;99.90
18454;DHT22;9356;52.202;20.950;2023-03-23T05:06:01;10.90;99.90
18454;DHT22;9356;52.202;20.950;2023-03-23T05:07:04;10.90;99.90
18454;DHT22;9356;52.202;20.950;2023-03-23T05:08:13;10.90;99.90
18454;DHT22;9356;52.202;20.950;2023-03-23T05:09:17;10.90;99.90
18454;DHT22;9356;52.202;20.950;2023-03-23T05:10:19;10.90;99.90
18454;DHT22;9356;52.202;20.950;2023-03-23T05:11:21;10.80;99.90
18454;DHT22;9356;52.202;20.950;2023-03-23T05:12:24;10.80;99.90
18454;DHT22;9356;52.202;20.950;2023-03-23T05:13:34;10.80;99.90
18454;DHT22;9356;52.202;20.950;2023-03-23T05:14:39;10.70;99.90
18454;DHT22;9356;52.202;20.950;2023-03-23T05:16:46;10.80;99.90
18454;DHT22;9356;52.202;20.950;2023-03-23T05:17:52;10.70;99.90
18454;DHT22;9356;52.202;20.950;2023-03-23T05:18:55;10.70;99.90
18454;DHT22;9356;52.202;20.950;2023-03-23T05:19:59;10.80;99.90
18454;DHT22;9356;52.202;20.950;2023-03-23T05:21:10;12.40;99.90
18454;DHT22;9356;52.202;20.950;2023-03-23T05:22:16;10.70;99.90
18454;DHT22;9356;52.202;20.950;2023-03-23T05:23:27;10.70;99.90
18454;DHT22;9356;52.202;20.950;2023-03-23T05:24:40;10.70;99.90
18454;DHT22;9356;52.202;20.950;2023-03-23T05:25:44;10.70;99.90
18454;DHT22;9356;52.202;20.950;2023-03-23T05:26:52;10.70;99.90
18454;DHT22;9356;52.202;20.950;2023-03-23T05:27:59;10.70;99.90
18454;DHT22;9356;52.202;20.950;2023-03-23T05:29:32;10.70;99.90
18454;DHT22;9356;52.202;20.950;2023-03-23T05:30:37;10.70;99.90
18454;DHT22;9356;52.202;20.950;2023-03-23T05:31:40;10.70;99.90
18454;DHT22;9356;52.202;20.950;2023-03-23T05:32:42;10.80;99.90
18454;DHT22;9356;52.202;20.950;2023-03-23T05:35:09;8.30;99.90
18454;DHT22;9356;52.202;20.950;2023-03-23T05:36:11;10.80;99.90
18454;DHT22;9356;52.202;20.950;2023-03-23T05:37:32;10.80;99.90
18454;DHT22;9356;52.202;20.950;2023-03-23T05:38:43;10.90;99.90
18454;DHT22;9356;52.202;20.950;2023-03-23T05:39:50;10.90;99.90
18454;DHT22;9356;52.202;20.950;2023-03-23T05:41:15;10.90;99.90
18454;DHT22;9356;52.202;20.950;2023-03-23T05:42:19;10.90;99.90
18454;DHT22;9356;52.202;20.950;2023-03-23T05:43:30;10.90;99.90
18454;DHT22;9356;52.202;20.950;2023-03-23T05:44:59;10.90;99.90
18454;DHT22;9356;52.202;20.950;2023-03-23T05:46:02;10.90;99.90
18454;DHT22;9356;52.202;20.950;2023-03-23T05:47:05;11.10;99.90
18454;DHT22;9356;52.202;20.950;2023-03-23T05:48:08;11.10;99.90
18454;DHT22;9356;52.202;20.950;2023-03-23T05:49:11;11.00;99.90
18454;DHT22;9356;52.202;20.950;2023-03-23T05:50:15;11.10;99.90
18454;DHT22;9356;52.202;20.950;2023-03-23T05:51:18;11.20;99.90
18454;DHT22;9356;52.202;20.950;2023-03-23T05:52:21;11.20;99.90
18454;DHT22;9356;52.202;20.950;2023-03-23T05:53:26;10.80;99.90
18454;DHT22;9356;52.202;20.950;2023-03-23T05:54:30;11.30;99.90
18454;DHT22;9356;52.202;20.950;2023-03-23T05:55:33;11.20;99.90
18454;DHT22;9356;52.202;20.950;2023-03-23T05:56:43;11.30;99.90
18454;DHT22;9356;52.202;20.950;2023-03-23T05:58:02;11.30;99.90
18454;DHT22;9356;52.202;20.950;2023-03-23T05:59:08;11.30;99.90
18454;DHT22;9356;52.202;20.950;2023-03-23T06:00:13;11.40;99.90
18454;DHT22;9356;52.202;20.950;2023-03-23T06:01:17;11.40;99.90
18454;DHT22;9356;52.202;20.950;2023-03-23T06:02:20;10.00;99.90
18454;DHT22;9356;52.202;20.950;2023-03-23T06:03:25;11.40;99.90
18454;DHT22;9356;52.202;20.950;2023-03-23T06:04:37;11.60;99.90
18454;DHT22;9356;52.202;20.950;2023-03-23T06:05:57;11.50;99.90
18454;DHT22;9356;52.202;20.950;2023-03-23T06:07:08;11.60;99.90
18454;DHT22;9356;52.202;20.950;2023-03-23T06:08:19;9.30;99.90
18454;DHT22;9356;52.202;20.950;2023-03-23T06:09:22;11.70;99.90
18454;DHT22;9356;52.202;20.950;2023-03-23T06:10:40;11.70;99.90
18454;DHT22;9356;52.202;20.950;2023-03-23T06:11:43;11.70;99.90
18454;DHT22;9356;52.202;20.950;2023-03-23T06:13:01;11.70;99.90
18454;DHT22;9356;52.202;20.950;2023-03-23T06:14:33;11.80;99.90
18454;DHT22;9356;52.202;20.950;2023-03-23T06:15:36;11.80;99.90
18454;DHT22;9356;52.202;20.950;2023-03-23T06:16:49;11.90;99.90
18454;DHT22;9356;52.202;20.950;2023-03-23T06:17:53;11.90;99.90
18454;DHT22;9356;52.202;20.950;2023-03-23T06:19:03;11.90;99.90
18454;DHT22;9356;52.202;20.950;2023-03-23T06:20:12;10.20;99.90
18454;DHT22;9356;52.202;20.950;2023-03-23T06:21:15;12.00;99.90
18454;DHT22;9356;52.202;20.950;2023-03-23T06:22:45;12.10;99.90
18454;DHT22;9356;52.202;20.950;2023-03-23T06:23:59;15.40;99.90
18454;DHT22;9356;52.202;20.950;2023-03-23T06:25:05;12.10;99.90
18454;DHT22;9356;52.202;20.950;2023-03-23T06:26:17;12.20;99.90
18454;DHT22;9356;52.202;20.950;2023-03-23T06:27:24;12.30;99.90
18454;DHT22;9356;52.202;20.950;2023-03-23T06:28:27;12.30;99.90
18454;DHT22;9356;52.202;20.950;2023-03-23T06:29:30;12.30;99.90
18454;DHT22;9356;52.202;20.950;2023-03-23T06:30:33;12.40;99.90
18454;DHT22;9356;52.202;20.950;2023-03-23T06:31:35;12.40;99.90
18454;DHT22;9356;52.202;20.950;2023-03-23T06:32:38;12.40;99.90
18454;DHT22;9356;52.202;20.950;2023-03-23T06:33:45;12.50;99.90
18454;DHT22;9356;52.202;20.950;2023-03-23T06:34:55;12.50;99.90
18454;DHT22;9356;52.202;20.950;2023-03-23T06:36:16;12.60;99.90
18454;DHT22;9356;52.202;20.950;2023-03-23T06:37:27;10.20;99.60
18454;DHT22;9356;52.202;20.950;2023-03-23T06:38:37;12.60;99.90
18454;DHT22;9356;52.202;20.950;2023-03-23T06:39:38;12.70;99.90
18454;DHT22;9356;52.202;20.950;2023-03-23T06:40:58;12.70;99.90
18454;DHT22;9356;52.202;20.950;2023-03-23T06:42:09;12.80;99.90
18454;DHT22;9356;52.202;20.950;2023-03-23T06:43:14;12.80;99.90
18454;DHT22;9356;52.202;20.950;2023-03-23T06:44:33;12.90;99.90
18454;DHT22;9356;52.202;20.950;2023-03-23T06:45:37;12.90;99.90
18454;DHT22;9356;52.202;20.950;2023-03-23T06:46:57;12.90;99.70
18454;DHT22;9356;52.202;20.950;2023-03-23T06:48:05;9.40;98.90
18454;DHT22;9356;52.202;20.950;2023-03-23T06:49:07;13.10;99.70
18454;DHT22;9356;52.202;20.950;2023-03-23T06:50:21;13.30;99.70
18454;DHT22;9356;52.202;20.950;2023-03-23T06:51:24;13.30;99.40
18454;DHT22;9356;52.202;20.950;2023-03-23T06:52:28;13.30;99.30
18454;DHT22;9356;52.202;20.950;2023-03-23T06:53:30;13.50;99.30
18454;DHT22;9356;52.202;20.950;2023-03-23T06:54:33;13.60;98.90
18454;DHT22;9356;52.202;20.950;2023-03-23T06:55:38;13.60;98.70
18454;DHT22;9356;52.202;20.950;2023-03-23T06:56:39;13.60;98.50
18454;DHT22;9356;52.202;20.950;2023-03-23T06:57:47;13.70;98.00
18454;DHT22;9356;52.202;20.950;2023-03-23T06:58:49;13.50;98.40
18454;DHT22;9356;52.202;20.950;2023-03-23T06:59:52;13.80;98.30
18454;DHT22;9356;52.202;20.950;2023-03-23T07:00:57;13.90;98.10
18454;DHT22;9356;52.202;20.950;2023-03-23T07:02:22;14.00;97.80
18454;DHT22;9356;52.202;20.950;2023-03-23T07:03:27;14.10;97.60
18454;DHT22;9356;52.202;20.950;2023-03-23T07:04:30;14.10;97.20
18454;DHT22;9356;52.202;20.950;2023-03-23T07:05:48;14.20;97.40
18454;DHT22;9356;52.202;20.950;2023-03-23T07:06:52;14.30;97.00
18454;DHT22;9356;52.202;20.950;2023-03-23T07:07:55;14.20;97.10
18454;DHT22;9356;52.202;20.950;2023-03-23T07:09:09;14.20;97.40
18454;DHT22;9356;52.202;20.950;2023-03-23T07:10:12;17.80;98.00
18454;DHT22;9356;52.202;20.950;2023-03-23T07:11:14;14.40;99.40
18454;DHT22;9356;52.202;20.950;2023-03-23T07:12:19;14.60;99.90
18454;DHT22;9356;52.202;20.950;2023-03-23T07:13:24;14.70;99.10
18454;DHT22;9356;52.202;20.950;2023-03-23T07:14:32;14.80;99.90
18454;DHT22;9356;52.202;20.950;2023-03-23T07:15:34;17.00;99.70
18454;DHT22;9356;52.202;20.950;2023-03-23T07:16:36;15.00;96.80
18454;DHT22;9356;52.202;20.950;2023-03-23T07:17:40;15.10;96.40
18454;DHT22;9356;52.202;20.950;2023-03-23T07:18:57;13.50;95.70
18454;DHT22;9356;52.202;20.950;2023-03-23T07:20:00;15.10;96.30
18454;DHT22;9356;52.202;20.950;2023-03-23T07:21:02;15.20;96.10
18454;DHT22;9356;52.202;20.950;2023-03-23T07:22:07;15.20;96.20
18454;DHT22;9356;52.202;20.950;2023-03-23T07:23:10;15.20;96.10
18454;DHT22;9356;52.202;20.950;2023-03-23T07:24:16;15.30;95.80
18454;DHT22;9356;52.202;20.950;2023-03-23T07:25:37;15.30;95.50
18454;DHT22;9356;52.202;20.950;2023-03-23T07:26:41;11.40;94.10
18454;DHT22;9356;52.202;20.950;2023-03-23T07:27:45;15.20;94.90
18454;DHT22;9356;52.202;20.950;2023-03-23T07:28:49;12.50;94.10